Time;durP1;ratioP1;P1;durP2;ratioP2;P2;SDS_P1;SDS_P2;PMS_P1;PMS_P2;Temp;Humidity;BMP_temperature;BMP_pressure;BME280_temperature;BME280_humidity;BME280_pressure;Samples;Min_cycle;Max_cycle;Signal;HPM_P1;HPM_P2
2022/06/15 00:01:26;;;;;;;8.43;2.80;;;16.50;99.90;;;;;;5079983;28;20048;-63
2022/06/15 00:03:53;;;;;;;6.05;2.90;;;16.70;99.90;;;;;;5080260;28;20393;-63
2022/06/15 00:06:23;;;;;;;6.22;2.92;;;16.60;99.90;;;;;;5080174;28;20379;-63
2022/06/15 00:08:51;;;;;;;6.20;3.05;;;16.50;99.90;;;;;;5080171;28;20041;-63
2022/06/15 00:11:24;;;;;;;6.75;3.40;;;16.40;99.90;;;;;;5079091;28;20032;-64
2022/06/15 00:13:51;;;;;;;5.55;2.80;;;16.30;99.90;;;;;;5079825;28;20028;-63
2022/06/15 00:16:17;;;;;;;6.75;3.15;;;16.20;99.90;;;;;;5079715;28;20063;-63
2022/06/15 00:18:45;;;;;;;8.02;3.22;;;16.20;99.90;;;;;;5079675;28;20072;-65
2022/06/15 00:21:17;;;;;;;7.00;3.00;;;16.20;99.90;;;;;;5079708;28;20029;-64
2022/06/15 00:23:43;;;;;;;6.38;2.65;;;16.10;99.90;;;;;;5079687;28;20303;-64
2022/06/15 00:26:09;;;;;;;7.60;3.13;;;16.00;99.90;;;;;;5079637;28;20052;-64
2022/06/15 00:28:35;;;;;;;6.20;3.17;;;16.10;99.90;;;;;;5078625;28;20110;-64
2022/06/15 00:31:02;;;;;;;4.18;2.90;;;16.00;99.90;;;;;;5079064;28;20060;-64
2022/06/15 00:33:29;;;;;;;5.45;3.20;;;16.00;99.90;;;;;;5079436;28;20028;-64
2022/06/15 00:36:07;;;;;;;6.75;3.25;;;15.90;99.90;;;;;;5079447;28;20064;-64
2022/06/15 00:38:42;;;;;;;6.80;3.28;;;15.80;99.90;;;;;;5079624;28;20025;-64
2022/06/15 00:41:12;;;;;;;4.35;3.42;;;15.90;99.90;;;;;;5079820;28;20043;-64
2022/06/15 00:43:43;;;;;;;5.25;3.40;;;15.80;99.90;;;;;;5078944;28;20040;-66
2022/06/15 00:46:18;;;;;;;5.88;3.20;;;15.70;99.90;;;;;;5079296;28;20050;-64
2022/06/15 00:48:46;;;;;;;7.70;3.85;;;15.80;99.90;;;;;;5079069;28;20037;-64
2022/06/15 00:51:14;;;;;;;7.20;3.67;;;15.70;99.90;;;;;;5079642;28;20066;-65
2022/06/15 00:53:40;;;;;;;6.25;3.70;;;15.70;99.90;;;;;;5078852;28;20412;-64
2022/06/15 00:56:08;;;;;;;6.70;3.30;;;15.70;99.90;;;;;;5079054;28;20067;-63
2022/06/15 00:58:37;;;;;;;6.78;3.90;;;15.70;99.90;;;;;;5078934;28;20075;-64
2022/06/15 01:01:05;;;;;;;7.78;3.78;;;15.60;99.90;;;;;;5078186;28;20119;-63
2022/06/15 01:03:31;;;;;;;6.97;3.60;;;15.50;99.90;;;;;;5079290;28;20027;-64
2022/06/15 01:06:03;;;;;;;8.18;3.78;;;15.50;99.90;;;;;;5079120;28;20052;-64
2022/06/15 01:08:51;;;;;;;8.80;4.10;;;15.50;99.90;;;;;;5078796;28;20059;-64
2022/06/15 01:11:39;;;;;;;5.85;3.40;;;15.40;99.90;;;;;;5078362;28;20333;-64
2022/06/15 01:14:26;;;;;;;8.20;3.30;;;15.30;99.90;;;;;;5078694;28;20039;-64
2022/06/15 01:17:26;;;;;;;8.85;3.80;;;15.30;99.90;;;;;;5079042;28;20028;-64
2022/06/15 01:20:08;;;;;;;7.70;3.75;;;15.20;99.90;;;;;;5078571;28;20043;-64
2022/06/15 01:23:06;;;;;;;6.07;3.80;;;15.20;99.90;;;;;;5077885;28;20028;-64
2022/06/15 01:25:57;;;;;;;6.10;3.90;;;15.20;99.90;;;;;;5079023;28;20028;-64
2022/06/15 01:28:46;;;;;;;6.50;3.70;;;15.20;99.90;;;;;;5078632;28;20039;-64
2022/06/15 01:31:34;;;;;;;7.88;3.75;;;15.30;99.90;;;;;;5078900;28;20033;-63
2022/06/15 01:34:17;;;;;;;4.10;3.70;;;15.20;99.90;;;;;;5078319;28;20042;-63
2022/06/15 01:37:24;;;;;;;8.40;4.07;;;15.10;99.90;;;;;;5078910;28;20435;-63
2022/06/15 01:39:59;;;;;;;5.85;3.60;;;15.00;99.90;;;;;;5077987;28;20032;-63
2022/06/15 01:42:31;;;;;;;6.07;3.78;;;15.00;99.90;;;;;;5078173;28;20035;-63
2022/06/15 01:45:09;;;;;;;6.55;4.15;;;15.00;99.90;;;;;;5077481;28;20028;-64
2022/06/15 01:47:38;;;;;;;9.52;4.53;;;14.90;99.90;;;;;;5077309;28;20038;-64
2022/06/15 01:50:17;;;;;;;6.00;3.90;;;14.90;99.90;;;;;;5077101;28;20403;-64
2022/06/15 01:52:48;;;;;;;7.18;3.92;;;14.90;99.90;;;;;;5077896;28;20044;-64
2022/06/15 01:55:25;;;;;;;6.07;4.50;;;14.90;99.90;;;;;;5077042;28;20048;-64
2022/06/15 01:57:56;;;;;;;6.05;4.47;;;14.80;99.90;;;;;;5076977;28;20028;-64
2022/06/15 02:00:22;;;;;;;7.07;4.60;;;14.80;99.90;;;;;;5078333;28;20024;-64
2022/06/15 02:02:58;;;;;;;6.68;4.50;;;14.80;99.90;;;;;;5076924;28;20025;-64
2022/06/15 02:05:45;;;;;;;7.15;4.47;;;14.80;99.90;;;;;;5076938;28;20085;-64
2022/06/15 02:08:36;;;;;;;7.60;4.28;;;14.70;99.90;;;;;;5076850;28;20039;-64
2022/06/15 02:11:08;;;;;;;7.25;4.90;;;14.70;99.90;;;;;;5077417;28;20024;-64
2022/06/15 02:13:50;;;;;;;6.22;4.18;;;14.70;99.90;;;;;;5060240;28;20281;-64
2022/06/15 02:16:31;;;;;;;8.68;5.07;;;14.70;99.90;;;;;;5076723;28;20029;-65
2022/06/15 02:19:00;;;;;;;7.53;4.25;;;14.70;99.90;;;;;;5076622;28;20423;-63
2022/06/15 02:21:28;;;;;;;7.00;4.45;;;14.70;99.90;;;;;;5077367;28;20095;-63
2022/06/15 02:23:58;;;;;;;5.75;4.60;;;14.70;99.90;;;;;;5076559;28;20017;-63
2022/06/15 02:26:34;;;;;;;5.65;4.65;;;14.70;99.90;;;;;;5077323;28;20081;-63
2022/06/15 02:29:15;;;;;;;7.43;4.70;;;14.70;99.90;;;;;;5076490;28;20043;-64
2022/06/15 02:31:45;;;;;;;7.93;5.03;;;14.60;99.90;;;;;;5077682;28;20102;-64
2022/06/15 02:34:12;;;;;;;5.85;4.20;;;14.70;99.90;;;;;;5076438;28;20028;-63
2022/06/15 02:36:40;;;;;;;8.48;4.50;;;14.70;99.90;;;;;;5076458;28;20094;-63
2022/06/15 02:39:08;;;;;;;8.00;4.32;;;14.70;99.90;;;;;;5076275;28;20037;-64
2022/06/15 02:41:34;;;;;;;4.68;4.13;;;14.70;99.90;;;;;;5077121;28;20029;-63
2022/06/15 02:44:06;;;;;;;9.43;4.35;;;14.70;99.90;;;;;;5076383;28;20025;-63
2022/06/15 02:46:39;;;;;;;5.45;4.40;;;14.60;99.90;;;;;;5076322;28;20025;-63
2022/06/15 02:49:06;;;;;;;9.48;4.70;;;14.60;99.90;;;;;;5076505;28;20078;-63
2022/06/15 02:51:42;;;;;;;7.22;4.57;;;14.60;99.90;;;;;;5075588;28;20036;-63
2022/06/15 02:54:34;;;;;;;7.38;4.68;;;14.70;99.90;;;;;;5076176;28;20040;-64
2022/06/15 02:57:08;;;;;;;8.65;4.28;;;14.80;99.90;;;;;;5076240;28;20036;-63
2022/06/15 02:59:35;;;;;;;6.85;4.80;;;14.80;99.90;;;;;;5076068;28;20029;-64
2022/06/15 03:02:02;;;;;;;7.07;4.53;;;14.70;99.90;;;;;;5059749;28;20032;-64
2022/06/15 03:04:30;;;;;;;5.32;4.03;;;14.80;99.90;;;;;;5076120;28;20048;-64
2022/06/15 03:06:58;;;;;;;6.50;4.00;;;14.80;99.90;;;;;;5076080;28;20024;-64
2022/06/15 03:09:24;;;;;;;7.18;4.82;;;14.70;99.90;;;;;;5076040;28;20040;-64
2022/06/15 03:11:52;;;;;;;5.88;4.10;;;14.60;99.90;;;;;;5059469;28;20055;-63
2022/06/15 03:14:31;;;;;;;6.97;4.45;;;14.50;99.90;;;;;;5076337;28;20032;-64
2022/06/15 03:17:01;;;;;;;4.95;4.03;;;14.40;99.90;;;;;;5075985;28;20036;-63
2022/06/15 03:19:44;;;;;;;5.57;4.43;;;14.40;99.90;;;;;;5076030;28;20044;-63
2022/06/15 03:22:11;;;;;;;5.90;4.43;;;14.30;99.90;;;;;;5075811;28;20032;-63
2022/06/15 03:24:38;;;;;;;11.18;5.13;;;14.30;99.90;;;;;;5075884;28;20024;-63
2022/06/15 03:27:07;;;;;;;6.70;4.20;;;14.40;99.90;;;;;;5075915;28;20437;-63
2022/06/15 03:29:33;;;;;;;6.47;4.47;;;14.30;99.90;;;;;;5059183;28;20029;-64
2022/06/15 03:32:05;;;;;;;5.47;4.40;;;14.20;99.90;;;;;;5059866;28;20037;-63
2022/06/15 03:34:41;;;;;;;7.97;4.57;;;14.20;99.90;;;;;;5075697;28;20124;-64
2022/06/15 03:37:09;;;;;;;5.53;4.45;;;14.20;99.90;;;;;;5075579;28;20033;-63
2022/06/15 03:39:36;;;;;;;5.53;4.15;;;14.10;99.90;;;;;;5075637;28;20024;-64
2022/06/15 03:42:16;;;;;;;6.18;4.50;;;14.10;99.90;;;;;;5076697;28;20028;-64
2022/06/15 03:44:43;;;;;;;6.18;4.43;;;14.10;99.90;;;;;;5075734;28;20025;-64
2022/06/15 03:47:19;;;;;;;4.60;3.95;;;14.00;99.90;;;;;;5075924;28;20033;-63
2022/06/15 03:49:48;;;;;;;6.53;4.35;;;14.00;99.90;;;;;;5059315;28;20048;-63
2022/06/15 03:52:16;;;;;;;6.43;3.97;;;13.90;99.90;;;;;;5075679;28;20075;-63
2022/06/15 03:54:42;;;;;;;6.95;4.10;;;14.00;99.90;;;;;;5059220;28;20037;-64
2022/06/15 03:57:11;;;;;;;4.70;4.25;;;14.00;99.90;;;;;;5075627;28;20032;-63
2022/06/15 03:59:37;;;;;;;4.35;3.85;;;14.00;99.90;;;;;;5075570;28;20330;-63
2022/06/15 04:02:24;;;;;;;7.55;4.30;;;14.00;99.90;;;;;;5082831;28;20097;-64
2022/06/15 04:04:50;;;;;;;6.20;4.30;;;14.00;99.90;;;;;;5078583;28;20032;-64
2022/06/15 04:10:02;;;;;;;9.18;4.65;;;14.10;99.90;;;;;;5080148;28;20343;-65
2022/06/15 04:12:29;;;;;;;7.43;5.07;;;14.10;99.90;;;;;;5079464;28;20460;-64
2022/06/15 04:14:56;;;;;;;9.98;5.00;;;14.10;99.90;;;;;;5079079;28;20025;-64
2022/06/15 04:17:36;;;;;;;10.38;5.00;;;14.20;99.90;;;;;;5079160;28;20028;-64
2022/06/15 04:22:54;;;;;;;7.63;4.70;;;14.20;99.90;;;;;;5078976;28;20040;-64
2022/06/15 04:25:20;;;;;;;6.10;4.63;;;14.30;99.90;;;;;;5078912;28;20029;-63
2022/06/15 04:27:46;;;;;;;9.75;4.65;;;14.20;99.90;;;;;;5078897;28;20043;-63
2022/06/15 04:30:14;;;;;;;7.22;4.45;;;14.30;99.90;;;;;;5078806;28;20033;-63
2022/06/15 04:32:46;;;;;;;5.13;4.30;;;14.30;99.90;;;;;;5078846;28;20123;-63
2022/06/15 04:35:12;;;;;;;6.78;4.82;;;14.30;99.90;;;;;;5062112;28;20097;-63
2022/06/15 04:37:39;;;;;;;8.98;4.80;;;14.40;99.90;;;;;;5078695;28;20085;-63
2022/06/15 04:40:23;;;;;;;7.47;5.32;;;14.40;99.90;;;;;;5079651;28;20040;-63
2022/06/15 04:42:49;;;;;;;7.22;5.03;;;14.50;99.90;;;;;;5079291;28;20030;-63
2022/06/15 04:45:20;;;;;;;12.00;5.18;;;14.50;99.90;;;;;;5061857;28;20025;-63
2022/06/15 04:47:58;;;;;;;6.57;4.90;;;14.60;99.90;;;;;;5078469;28;20139;-63
2022/06/15 04:50:24;;;;;;;8.68;4.95;;;14.70;99.90;;;;;;5078477;28;20111;-63
2022/06/15 04:52:52;;;;;;;7.75;4.95;;;14.70;99.90;;;;;;5078120;28;20106;-64
2022/06/15 04:55:20;;;;;;;8.52;4.93;;;14.80;99.90;;;;;;5078235;28;20124;-63
2022/06/15 04:57:46;;;;;;;8.57;4.55;;;14.90;99.90;;;;;;5078246;28;20052;-64
2022/06/15 05:00:16;;;;;;;9.23;5.40;;;14.90;99.90;;;;;;5078065;28;20040;-63
2022/06/15 05:02:43;;;;;;;9.93;4.82;;;15.00;99.90;;;;;;5078326;28;20043;-64
2022/06/15 05:05:10;;;;;;;8.68;5.15;;;15.20;99.90;;;;;;5061439;28;20082;-64
2022/06/15 05:07:36;;;;;;;7.13;4.53;;;15.30;99.90;;;;;;5078081;28;20040;-63
2022/06/15 05:10:04;;;;;;;7.75;5.00;;;15.30;99.90;;;;;;5078129;28;20072;-63
2022/06/15 05:12:31;;;;;;;8.52;4.90;;;15.40;99.90;;;;;;5077906;28;20071;-64
2022/06/15 05:14:57;;;;;;;8.63;4.93;;;15.60;99.90;;;;;;5077396;28;20036;-63
2022/06/15 05:17:25;;;;;;;8.18;4.53;;;15.80;99.90;;;;;;5077808;28;20273;-64
2022/06/15 05:19:51;;;;;;;6.00;4.63;;;15.70;99.90;;;;;;5077885;28;20060;-64
2022/06/15 05:22:31;;;;;;;9.90;5.05;;;15.70;99.90;;;;;;5078177;28;20086;-63
2022/06/15 05:25:01;;;;;;;10.98;4.72;;;15.80;99.90;;;;;;5047138;28;20028;-64
2022/06/15 05:27:27;;;;;;;10.15;5.05;;;15.80;99.90;;;;;;5077622;28;20055;-65
2022/06/15 05:29:55;;;;;;;10.32;4.90;;;15.90;99.90;;;;;;5077692;28;20328;-63
2022/06/15 05:32:21;;;;;;;7.63;4.70;;;15.90;99.90;;;;;;5078415;28;20041;-64
2022/06/15 05:34:46;;;;;;;6.97;4.97;;;16.00;99.90;;;;;;5077335;28;20108;-65
2022/06/15 05:37:14;;;;;;;8.30;4.82;;;16.00;99.90;;;;;;5077278;28;20044;-65
2022/06/15 05:39:41;;;;;;;7.82;5.15;;;16.20;99.90;;;;;;5077162;28;20285;-64
2022/06/15 05:42:08;;;;;;;7.88;4.60;;;16.30;99.90;;;;;;5077257;28;20364;-63
2022/06/15 05:44:50;;;;;;;9.23;5.10;;;16.30;99.90;;;;;;5077280;28;20052;-63
2022/06/15 05:47:16;;;;;;;7.10;5.05;;;16.30;99.90;;;;;;5060817;28;20047;-63
2022/06/15 05:50:17;;;;;;;11.10;5.00;;;16.20;99.90;;;;;;5077182;28;20303;-64
2022/06/15 05:52:49;;;;;;;6.65;4.80;;;16.40;99.90;;;;;;5061194;28;20418;-64
2022/06/15 05:55:15;;;;;;;9.07;4.93;;;16.50;99.90;;;;;;5077053;28;20092;-63
2022/06/15 05:57:41;;;;;;;9.45;5.22;;;16.60;99.90;;;;;;5076976;28;20032;-64
2022/06/15 06:00:09;;;;;;;6.90;4.63;;;16.50;99.90;;;;;;5077679;28;20208;-64
2022/06/15 06:02:41;;;;;;;8.88;5.10;;;16.60;99.90;;;;;;5077820;28;20088;-64
2022/06/15 06:05:07;;;;;;;10.30;5.38;;;16.60;99.90;;;;;;5078003;28;20028;-63
2022/06/15 06:07:33;;;;;;;11.95;4.72;;;16.60;99.90;;;;;;5077782;28;20108;-64
2022/06/15 06:09:59;;;;;;;9.45;5.30;;;16.70;99.90;;;;;;5076895;28;20123;-62
2022/06/15 06:12:25;;;;;;;10.38;5.68;;;16.90;99.90;;;;;;5077716;28;20067;-64
2022/06/15 06:14:53;;;;;;;10.98;5.28;;;17.00;99.90;;;;;;5077707;28;20307;-62
2022/06/15 06:17:20;;;;;;;8.02;5.28;;;17.10;99.90;;;;;;5076755;28;20036;-62
2022/06/15 06:19:46;;;;;;;9.20;5.55;;;17.30;99.90;;;;;;5078110;28;20319;-63
2022/06/15 06:22:11;;;;;;;6.50;3.30;;;17.30;99.90;;;;;;5077095;28;20029;-62
2022/06/15 06:24:37;;;;;;;13.30;5.28;;;17.50;99.90;;;;;;5077369;28;20300;-64
2022/06/15 06:27:09;;;;;;;10.23;5.70;;;17.60;99.90;;;;;;5075844;28;20115;-65
2022/06/15 06:29:35;;;;;;;9.02;4.95;;;17.70;99.90;;;;;;5077974;28;20037;-64
2022/06/15 06:32:02;;;;;;;11.02;5.45;;;17.70;99.90;;;;;;5076474;28;20033;-65
2022/06/15 06:34:32;;;;;;;8.52;4.65;;;17.80;99.90;;;;;;5076521;28;20043;-65
2022/06/15 06:37:02;;;;;;;10.30;5.10;;;17.80;99.90;;;;;;5060997;28;20400;-65
2022/06/15 06:39:30;;;;;;;13.10;4.57;;;18.00;99.90;;;;;;5077713;28;20041;-64
2022/06/15 06:41:57;;;;;;;9.50;5.53;;;18.00;99.90;;;;;;5077127;28;20274;-64
2022/06/15 06:44:23;;;;;;;7.07;4.75;;;18.10;99.90;;;;;;5077107;28;20029;-65
2022/06/15 06:46:51;;;;;;;15.73;4.95;;;18.10;99.90;;;;;;5076403;28;20070;-65
2022/06/15 06:49:17;;;;;;;11.85;5.20;;;18.20;99.90;;;;;;5076297;28;20032;-65
2022/06/15 06:51:44;;;;;;;8.55;4.50;;;18.40;99.90;;;;;;5076856;28;20059;-65
2022/06/15 06:54:13;;;;;;;8.23;4.30;;;18.40;99.90;;;;;;5076394;28;20036;-65
2022/06/15 06:56:39;;;;;;;7.13;4.82;;;18.50;99.90;;;;;;5076941;28;20055;-65
2022/06/15 06:59:07;;;;;;;9.50;4.28;;;18.60;99.90;;;;;;5076800;28;20398;-66
2022/06/15 07:01:38;;;;;;;9.07;4.75;;;18.50;99.90;;;;;;5076624;28;20082;-65
2022/06/15 07:04:05;;;;;;;13.13;4.70;;;18.60;99.90;;;;;;5076817;28;20032;-66
2022/06/15 07:06:31;;;;;;;8.32;4.68;;;18.60;99.90;;;;;;5076920;28;20458;-64
2022/06/15 07:08:57;;;;;;;10.27;4.38;;;18.80;99.90;;;;;;5076744;28;20040;-65
2022/06/15 07:11:23;;;;;;;5.40;3.95;;;18.90;99.90;;;;;;5076795;28;20090;-64
2022/06/15 07:13:49;;;;;;;9.25;4.43;;;19.00;99.90;;;;;;5075898;28;20351;-65
2022/06/15 07:16:17;;;;;;;9.77;4.38;;;19.00;99.90;;;;;;5075869;28;20116;-64
2022/06/15 07:18:45;;;;;;;7.97;4.47;;;19.10;99.90;;;;;;5076463;28;20093;-65
2022/06/15 07:21:24;;;;;;;8.18;4.20;;;19.30;99.90;;;;;;5076674;28;20384;-65
2022/06/15 07:23:51;;;;;;;9.52;5.50;;;19.40;99.90;;;;;;5076758;28;20320;-65
2022/06/15 07:26:22;;;;;;;9.90;5.00;;;19.50;99.90;;;;;;5076588;28;20032;-67
2022/06/15 07:28:48;;;;;;;11.05;5.10;;;19.50;99.90;;;;;;5076839;28;20040;-66
2022/06/15 07:31:36;;;;;;;11.60;4.80;;;19.60;99.90;;;;;;5076645;28;20116;-66
2022/06/15 07:34:03;;;;;;;10.50;4.72;;;19.80;99.90;;;;;;5076376;28;20032;-64
2022/06/15 07:36:29;;;;;;;8.48;4.45;;;19.80;99.90;;;;;;5075545;28;20033;-63
2022/06/15 07:38:57;;;;;;;9.60;4.43;;;19.80;99.90;;;;;;5079244;28;20036;-63
2022/06/15 07:41:24;;;;;;;8.07;3.88;;;20.00;99.90;;;;;;5080074;28;20039;-63
2022/06/15 07:43:52;;;;;;;5.65;3.50;;;20.10;99.90;;;;;;5080214;28;20024;-66
2022/06/15 07:46:18;;;;;;;8.57;3.70;;;20.20;99.90;;;;;;5079463;28;20040;-64
2022/06/15 07:51:40;;;;;;;6.47;2.88;;;20.30;99.90;;;;;;5080347;28;20376;-66
2022/06/15 07:54:09;;;;;;;8.18;3.40;;;20.30;99.90;;;;;;5079370;28;20041;-66
2022/06/15 07:56:36;;;;;;;9.25;3.60;;;20.40;99.90;;;;;;5080553;28;20341;-66
2022/06/15 07:59:03;;;;;;;8.10;3.08;;;20.50;99.90;;;;;;5079987;28;20195;-64
2022/06/15 08:01:29;;;;;;;7.10;3.00;;;20.60;99.90;;;;;;5080392;28;20028;-64
2022/06/15 08:03:55;;;;;;;8.43;3.50;;;20.70;99.90;;;;;;5080039;28;20035;-64
2022/06/15 08:06:22;;;;;;;7.38;3.22;;;20.70;99.90;;;;;;5079668;28;20028;-64
2022/06/15 08:08:48;;;;;;;10.13;3.05;;;20.90;99.90;;;;;;5079850;28;20032;-64
2022/06/15 08:11:15;;;;;;;4.00;2.78;;;20.70;99.90;;;;;;5079896;28;20380;-64
2022/06/15 08:13:41;;;;;;;6.20;2.65;;;20.80;99.90;;;;;;5079820;28;20055;-64
2022/06/15 08:16:07;;;;;;;5.75;2.75;;;20.80;99.90;;;;;;5079750;28;20033;-64
2022/06/15 08:18:39;;;;;;;7.28;3.28;;;20.90;99.90;;;;;;5079730;28;20036;-63
2022/06/15 08:21:09;;;;;;;4.35;2.40;;;21.00;99.90;;;;;;5079798;28;20021;-63
2022/06/15 08:23:37;;;;;;;6.82;2.50;;;21.00;99.90;;;;;;5080030;28;20090;-64
2022/06/15 08:26:10;;;;;;;5.03;2.85;;;21.10;99.90;;;;;;5079641;28;20028;-64
2022/06/15 08:28:38;;;;;;;;;;;21.10;99.90;;;;;;5080029;28;20025;-64
2022/06/15 08:31:04;;;;;;;7.68;2.70;;;21.20;99.90;;;;;;5079589;28;20176;-64
2022/06/15 08:33:30;;;;;;;8.25;2.67;;;21.40;99.90;;;;;;5079447;28;20040;-64
2022/06/15 08:35:56;;;;;;;7.47;2.65;;;21.60;99.90;;;;;;5079445;28;20024;-65
2022/06/15 08:38:24;;;;;;;5.97;2.78;;;21.50;99.90;;;;;;5079296;28;20071;-64
2022/06/15 08:41:00;;;;;;;7.85;3.17;;;21.50;99.90;;;;;;5079626;28;20287;-64
2022/06/15 08:43:47;;;;;;;7.53;3.08;;;21.70;99.90;;;;;;5079629;28;20090;-64
2022/06/15 08:46:50;;;;;;;5.93;2.60;;;21.70;99.90;;;;;;5079750;28;20414;-63
2022/06/15 08:49:30;;;;;;;8.43;2.35;;;21.90;99.90;;;;;;5078364;28;20044;-65
2022/06/15 08:51:59;;;;;;;6.95;2.58;;;22.10;99.90;;;;;;5078971;28;20308;-64
2022/06/15 08:54:31;;;;;;;6.20;2.80;;;22.20;99.90;;;;;;5078218;28;20300;-64
2022/06/15 08:57:08;;;;;;;6.70;2.25;;;22.30;99.90;;;;;;5079001;28;20296;-64
2022/06/15 08:59:47;;;;;;;7.25;3.15;;;22.50;99.90;;;;;;5078656;28;20032;-65
2022/06/15 09:02:36;;;;;;;7.90;2.47;;;22.40;99.90;;;;;;5078909;28;20070;-65
2022/06/15 09:06:02;;;;;;;7.95;2.88;;;22.40;99.90;;;;;;5079490;28;20028;-65
2022/06/15 09:09:05;;;;;;;7.53;3.00;;;22.40;99.90;;;;;;5078052;28;20044;-64
2022/06/15 09:11:50;;;;;;;5.45;2.85;;;22.40;99.90;;;;;;5077412;28;20145;-64
2022/06/15 09:14:33;;;;;;;8.63;3.13;;;22.50;99.90;;;;;;5078886;28;20025;-65
2022/06/15 09:17:16;;;;;;;6.50;3.00;;;22.60;99.90;;;;;;5078997;28;20021;-64
2022/06/15 09:20:03;;;;;;;9.75;3.15;;;22.70;99.90;;;;;;5078627;28;20043;-64
2022/06/15 09:22:34;;;;;;;7.40;3.78;;;22.70;99.90;;;;;;5078890;28;20392;-64
2022/06/15 09:25:26;;;;;;;7.05;3.22;;;22.80;99.90;;;;;;5078619;28;20024;-65
2022/06/15 09:28:01;;;;;;;8.53;3.50;;;22.80;99.90;;;;;;5078527;28;20025;-65
2022/06/15 09:30:34;;;;;;;8.52;3.15;;;22.70;99.90;;;;;;5077656;28;20454;-65
2022/06/15 09:33:09;;;;;;;;;;;22.70;99.90;;;;;;5078758;28;20056;-65
2022/06/15 09:35:39;;;;;;;9.80;3.33;;;22.80;99.90;;;;;;5077522;28;20195;-66
2022/06/15 09:38:10;;;;;;;6.07;3.22;;;22.80;99.90;;;;;;5078254;28;20032;-66
2022/06/15 09:40:46;;;;;;;6.40;3.25;;;23.00;99.90;;;;;;5078244;28;20029;-65
2022/06/15 09:43:22;;;;;;;11.13;3.58;;;23.20;99.90;;;;;;5078064;28;20031;-65
2022/06/15 09:46:12;;;;;;;5.95;3.10;;;23.30;99.90;;;;;;5078131;28;20033;-66
2022/06/15 09:48:41;;;;;;;6.78;3.85;;;23.50;99.90;;;;;;5077946;28;20028;-65
2022/06/15 09:51:22;;;;;;;8.27;3.72;;;23.40;99.90;;;;;;5077940;28;20047;-66
2022/06/15 09:54:26;;;;;;;7.40;2.55;;;23.40;99.90;;;;;;5078188;28;20415;-66
2022/06/15 09:56:52;;;;;;;9.98;3.65;;;23.40;99.90;;;;;;5077294;28;20040;-65
2022/06/15 09:59:21;;;;;;;5.43;2.50;;;23.20;99.90;;;;;;5077760;28;20039;-65
2022/06/15 10:01:47;;;;;;;7.82;3.10;;;23.30;99.90;;;;;;5076659;28;20033;-66
2022/06/15 10:04:27;;;;;;;7.97;3.40;;;23.70;99.90;;;;;;5077728;28;20029;-66
2022/06/15 10:07:03;;;;;;;6.88;3.70;;;23.70;99.90;;;;;;5077697;28;20025;-66
2022/06/15 10:09:34;;;;;;;10.55;3.60;;;23.90;99.90;;;;;;5078083;28;20400;-66
2022/06/15 10:15:11;;;;;;;8.65;2.83;;;24.10;99.90;;;;;;5078106;28;20115;-66
2022/06/15 10:17:46;;;;;;;6.97;3.22;;;24.30;99.90;;;;;;5077485;28;20029;-65
2022/06/15 10:20:20;;;;;;;8.07;3.53;;;24.50;99.90;;;;;;5077366;28;20044;-66
2022/06/15 10:22:52;;;;;;;8.60;3.95;;;24.60;99.90;;;;;;5077409;28;20032;-66
2022/06/15 10:25:19;;;;;;;11.02;4.35;;;24.60;99.90;;;;;;5077665;28;20093;-65
2022/06/15 10:27:45;;;;;;;8.00;3.55;;;24.60;99.90;;;;;;5077251;28;20020;-65
2022/06/15 10:30:11;;;;;;;7.22;3.40;;;24.60;99.90;;;;;;5077378;28;20066;-67
2022/06/15 10:32:52;;;;;;;5.97;3.30;;;24.70;99.90;;;;;;5077213;28;20033;-66
2022/06/15 10:35:19;;;;;;;9.02;4.20;;;24.70;99.90;;;;;;5077050;28;20041;-66
2022/06/15 10:37:52;;;;;;;5.95;3.38;;;24.80;99.90;;;;;;5077278;28;20037;-66
2022/06/15 10:40:21;;;;;;;6.40;3.53;;;24.80;99.90;;;;;;5076411;28;20040;-66
2022/06/15 10:42:54;;;;;;;6.65;3.42;;;24.90;99.90;;;;;;5077032;28;20020;-66
2022/06/15 10:45:22;;;;;;;7.68;3.25;;;24.80;99.90;;;;;;5076398;28;20028;-65
2022/06/15 10:48:00;;;;;;;6.93;3.20;;;25.00;99.90;;;;;;5077035;28;20111;-64
2022/06/15 10:50:30;;;;;;;8.73;3.30;;;25.40;99.90;;;;;;5076955;28;20034;-65
2022/06/15 10:53:00;;;;;;;6.72;3.50;;;25.50;99.90;;;;;;5076754;28;20052;-65
2022/06/15 11:04:31;;;;;;;9.70;2.60;;;25.70;99.90;;;;;;5076832;28;20389;-64
2022/06/15 11:07:39;;;;;;;8.18;3.13;;;26.20;99.90;;;;;;5076024;28;20047;-64
2022/06/15 11:10:23;;;;;;;7.68;2.95;;;27.50;99.90;;;;;;5076796;28;20103;-64
2022/06/15 11:12:54;;;;;;;7.82;2.63;;;28.80;99.90;;;;;;5076385;28;20300;-65
2022/06/15 11:18:01;;;;;;;5.18;1.95;;;30.20;99.90;;;;;;5076161;28;20037;-65
2022/06/15 11:18:31;;;;;;;5.47;1.70;;;31.40;99.90;;;;;;5076622;28;20111;-65
2022/06/15 11:21:12;;;;;;;5.78;1.92;;;33.10;96.10;;;;;;5075970;28;20036;-65
2022/06/15 11:23:57;;;;;;;7.03;2.53;;;33.30;90.80;;;;;;5076554;28;20040;-66
2022/06/15 11:26:57;;;;;;;7.65;2.53;;;33.50;84.80;;;;;;5077177;28;20078;-65
2022/06/15 11:29:53;;;;;;;8.00;2.53;;;34.40;82.40;;;;;;5076792;28;20117;-65
2022/06/15 11:32:40;;;;;;;7.05;2.42;;;34.00;78.80;;;;;;5076777;28;20028;-66
2022/06/15 11:35:12;;;;;;;5.45;1.70;;;35.00;76.10;;;;;;5077103;28;20020;-66
2022/06/15 11:37:47;;;;;;;;;;;36.00;71.60;;;;;;5076941;28;20427;-66
2022/06/15 11:40:51;;;;;;;6.07;2.13;;;35.50;67.50;;;;;;5076205;28;19924;-66
2022/06/15 11:43:28;;;;;;;6.22;1.90;;;36.00;66.60;;;;;;5076149;28;20043;-66
2022/06/15 11:46:16;;;;;;;7.15;3.00;;;35.60;63.00;;;;;;5076452;28;20025;-66
2022/06/15 11:49:02;;;;;;;5.95;2.40;;;33.60;64.40;;;;;;5076285;28;20029;-65
2022/06/15 11:51:40;;;;;;;6.97;2.20;;;32.60;68.60;;;;;;5076360;28;20381;-65
2022/06/15 11:54:14;;;;;;;5.07;2.42;;;31.50;72.10;;;;;;5076416;28;20108;-66
2022/06/15 11:57:10;;;;;;;7.35;2.20;;;31.90;71.80;;;;;;5076310;28;20029;-66
2022/06/15 12:00:00;;;;;;;5.53;2.60;;;33.90;68.70;;;;;;5076324;28;20032;-66
2022/06/15 12:02:46;;;;;;;6.13;1.92;;;34.80;64.10;;;;;;5076411;28;20036;-66
2022/06/15 12:05:29;;;;;;;5.57;2.00;;;35.30;62.80;;;;;;5076131;28;20028;-66
2022/06/15 12:08:04;;;;;;;4.25;1.77;;;36.00;59.50;;;;;;5076064;28;20048;-66
2022/06/15 12:14:08;;;;;;;5.88;2.10;;;36.20;60.30;;;;;;5074756;28;20154;-66
2022/06/15 12:16:42;;;;;;;4.47;1.67;;;35.10;60.10;;;;;;5076206;28;20082;-66
2022/06/15 12:19:22;;;;;;;3.55;1.85;;;36.00;62.20;;;;;;5076230;28;20053;-65
2022/06/15 12:22:06;;;;;;;7.82;1.95;;;37.90;58.60;;;;;;5076088;28;20094;-67
2022/06/15 12:24:54;;;;;;;5.03;1.98;;;38.70;54.90;;;;;;5076566;28;20032;-67
2022/06/15 12:27:44;;;;;;;3.40;1.63;;;39.30;53.90;;;;;;5079994;28;20032;-66
2022/06/15 12:30:29;;;;;;;8.80;2.25;;;39.50;52.70;;;;;;5079439;28;20036;-66
2022/06/15 12:33:08;;;;;;;5.95;2.20;;;39.50;52.10;;;;;;5079386;28;20113;-67
2022/06/15 12:35:39;;;;;;;5.30;1.88;;;39.40;50.60;;;;;;5080059;28;20119;-66
2022/06/15 12:38:34;;;;;;;4.85;1.75;;;40.10;51.50;;;;;;5079340;28;20093;-66
2022/06/15 12:41:04;;;;;;;6.60;1.98;;;40.90;49.10;;;;;;5078975;28;20048;-67
2022/06/15 12:43:40;;;;;;;7.28;2.10;;;41.30;47.80;;;;;;5078278;28;20037;-66
2022/06/15 12:46:16;;;;;;;4.95;1.85;;;39.70;48.60;;;;;;5079296;28;20035;-66
2022/06/15 12:49:03;;;;;;;4.00;1.77;;;40.20;48.10;;;;;;5079172;28;20364;-65
2022/06/15 12:51:42;;;;;;;4.80;1.60;;;40.90;46.40;;;;;;5079290;28;20059;-65
2022/06/15 12:54:27;;;;;;;4.72;2.10;;;41.50;46.30;;;;;;5079207;28;20421;-66
2022/06/15 12:57:01;;;;;;;5.50;2.10;;;42.20;43.90;;;;;;5079545;28;20322;-67
2022/06/15 12:59:59;;;;;;;5.32;1.77;;;38.90;46.60;;;;;;5078982;28;20040;-65
2022/06/15 13:02:31;;;;;;;4.93;1.85;;;39.90;48.30;;;;;;5078435;28;20032;-66
2022/06/15 13:05:10;;;;;;;4.88;1.73;;;40.40;44.80;;;;;;5079009;28;20396;-67
2022/06/15 13:07:38;;;;;;;3.53;1.80;;;41.80;44.40;;;;;;5079088;28;20025;-67
2022/06/15 13:10:07;;;;;;;5.47;2.10;;;42.00;43.00;;;;;;5078777;28;20089;-68
2022/06/15 13:12:41;;;;;;;4.03;1.60;;;42.60;42.10;;;;;;5078008;28;20025;-67
2022/06/15 13:15:18;;;;;;;5.38;1.88;;;43.80;41.80;;;;;;5061239;28;20403;-68
2022/06/15 13:18:19;;;;;;;5.07;1.70;;;44.70;38.70;;;;;;5078671;28;20024;-65
2022/06/15 13:20:46;;;;;;;6.43;1.83;;;45.00;39.30;;;;;;5078303;28;20044;-66
2022/06/15 13:23:32;;;;;;;7.40;2.15;;;45.40;38.20;;;;;;5078390;28;20028;-66
2022/06/15 13:26:06;;;;;;;4.53;1.80;;;44.70;38.30;;;;;;5078496;28;20059;-66
2022/06/15 13:28:35;;;;;;;5.38;2.03;;;44.00;38.40;;;;;;5077447;28;20040;-66
2022/06/15 13:31:09;;;;;;;4.70;1.88;;;42.30;39.50;;;;;;5078306;28;20419;-66
2022/06/15 13:33:48;;;;;;;4.95;1.63;;;41.60;40.50;;;;;;5078296;28;20024;-66
2022/06/15 13:36:14;;;;;;;6.07;1.77;;;42.60;40.10;;;;;;5078034;28;20086;-65
2022/06/15 13:38:43;;;;;;;4.90;1.90;;;43.20;38.90;;;;;;5078159;28;20033;-66
2022/06/15 13:41:20;;;;;;;3.75;1.60;;;43.70;38.40;;;;;;5078096;28;20028;-66
2022/06/15 13:43:49;;;;;;;7.40;1.60;;;44.20;37.60;;;;;;5078364;28;20024;-66